sensor_id;sensor_type;location;lat;lon;timestamp;P1;durP1;ratioP1;P2;durP2;ratioP2
59512;SDS011;45330;51.634;5.562;2023-04-24T00:02:22;17.85;;;8.48;;
59512;SDS011;45330;51.634;5.562;2023-04-24T00:04:47;17.42;;;8.00;;
59512;SDS011;45330;51.634;5.562;2023-04-24T00:07:14;18.38;;;7.93;;
59512;SDS011;45330;51.634;5.562;2023-04-24T00:09:42;16.88;;;7.88;;
59512;SDS011;45330;51.634;5.562;2023-04-24T00:12:08;18.67;;;8.27;;
59512;SDS011;45330;51.634;5.562;2023-04-24T00:14:34;17.25;;;7.55;;
59512;SDS011;45330;51.634;5.562;2023-04-24T00:17:00;18.63;;;8.82;;
59512;SDS011;45330;51.634;5.562;2023-04-24T00:19:27;19.27;;;8.65;;
59512;SDS011;45330;51.634;5.562;2023-04-24T00:21:53;19.95;;;9.25;;
59512;SDS011;45330;51.634;5.562;2023-04-24T00:24:19;19.30;;;9.13;;
59512;SDS011;45330;51.634;5.562;2023-04-24T00:26:44;20.08;;;9.45;;
59512;SDS011;45330;51.634;5.562;2023-04-24T00:29:10;20.70;;;10.40;;
59512;SDS011;45330;51.634;5.562;2023-04-24T00:31:35;19.88;;;10.30;;
59512;SDS011;45330;51.634;5.562;2023-04-24T00:34:01;21.63;;;10.65;;
59512;SDS011;45330;51.634;5.562;2023-04-24T00:36:27;20.27;;;10.48;;
59512;SDS011;45330;51.634;5.562;2023-04-24T00:38:53;22.58;;;11.18;;
59512;SDS011;45330;51.634;5.562;2023-04-24T00:41:19;21.35;;;11.40;;
59512;SDS011;45330;51.634;5.562;2023-04-24T00:43:44;22.67;;;11.88;;
59512;SDS011;45330;51.634;5.562;2023-04-24T00:46:10;22.48;;;11.55;;
59512;SDS011;45330;51.634;5.562;2023-04-24T00:48:38;22.45;;;11.93;;
59512;SDS011;45330;51.634;5.562;2023-04-24T00:51:04;23.83;;;12.95;;
59512;SDS011;45330;51.634;5.562;2023-04-24T00:53:30;25.08;;;12.90;;
59512;SDS011;45330;51.634;5.562;2023-04-24T00:55:55;23.50;;;13.05;;
59512;SDS011;45330;51.634;5.562;2023-04-24T00:58:21;25.13;;;14.52;;
59512;SDS011;45330;51.634;5.562;2023-04-24T01:00:48;25.55;;;13.50;;
59512;SDS011;45330;51.634;5.562;2023-04-24T01:03:15;25.73;;;14.63;;
59512;SDS011;45330;51.634;5.562;2023-04-24T01:05:41;26.80;;;14.95;;
59512;SDS011;45330;51.634;5.562;2023-04-24T01:08:07;26.88;;;14.82;;
59512;SDS011;45330;51.634;5.562;2023-04-24T01:10:33;28.80;;;15.68;;
59512;SDS011;45330;51.634;5.562;2023-04-24T01:13:00;25.73;;;14.75;;
59512;SDS011;45330;51.634;5.562;2023-04-24T01:15:25;26.95;;;16.77;;
59512;SDS011;45330;51.634;5.562;2023-04-24T01:17:51;28.52;;;16.05;;
59512;SDS011;45330;51.634;5.562;2023-04-24T01:20:16;28.35;;;16.63;;
59512;SDS011;45330;51.634;5.562;2023-04-24T01:22:42;29.90;;;17.23;;
59512;SDS011;45330;51.634;5.562;2023-04-24T01:25:07;30.13;;;16.58;;
59512;SDS011;45330;51.634;5.562;2023-04-24T01:27:33;28.70;;;17.27;;
59512;SDS011;45330;51.634;5.562;2023-04-24T01:29:59;29.67;;;17.77;;
59512;SDS011;45330;51.634;5.562;2023-04-24T01:32:25;29.50;;;17.30;;
59512;SDS011;45330;51.634;5.562;2023-04-24T01:34:51;32.55;;;17.85;;
59512;SDS011;45330;51.634;5.562;2023-04-24T01:37:16;28.15;;;17.17;;
59512;SDS011;45330;51.634;5.562;2023-04-24T01:39:42;29.00;;;16.67;;
59512;SDS011;45330;51.634;5.562;2023-04-24T01:42:08;26.17;;;16.35;;
59512;SDS011;45330;51.634;5.562;2023-04-24T01:44:34;28.48;;;17.90;;
59512;SDS011;45330;51.634;5.562;2023-04-24T01:47:00;27.95;;;17.25;;
59512;SDS011;45330;51.634;5.562;2023-04-24T01:49:26;30.80;;;18.73;;
59512;SDS011;45330;51.634;5.562;2023-04-24T01:51:51;28.17;;;17.27;;
59512;SDS011;45330;51.634;5.562;2023-04-24T01:54:17;29.95;;;18.17;;
59512;SDS011;45330;51.634;5.562;2023-04-24T01:56:43;30.23;;;18.30;;
59512;SDS011;45330;51.634;5.562;2023-04-24T01:59:11;32.65;;;20.35;;
59512;SDS011;45330;51.634;5.562;2023-04-24T02:01:37;31.10;;;20.00;;
59512;SDS011;45330;51.634;5.562;2023-04-24T02:04:04;32.17;;;20.48;;
59512;SDS011;45330;51.634;5.562;2023-04-24T02:06:30;34.45;;;21.02;;
59512;SDS011;45330;51.634;5.562;2023-04-24T02:08:57;34.33;;;22.95;;
59512;SDS011;45330;51.634;5.562;2023-04-24T02:11:23;32.67;;;22.65;;
59512;SDS011;45330;51.634;5.562;2023-04-24T02:13:48;35.28;;;22.58;;
59512;SDS011;45330;51.634;5.562;2023-04-24T02:16:15;36.58;;;24.63;;
59512;SDS011;45330;51.634;5.562;2023-04-24T02:18:40;34.25;;;22.63;;
59512;SDS011;45330;51.634;5.562;2023-04-24T02:21:06;38.40;;;23.65;;
59512;SDS011;45330;51.634;5.562;2023-04-24T02:23:31;38.13;;;24.50;;
59512;SDS011;45330;51.634;5.562;2023-04-24T02:25:57;34.30;;;24.23;;
59512;SDS011;45330;51.634;5.562;2023-04-24T02:28:22;35.03;;;23.35;;
59512;SDS011;45330;51.634;5.562;2023-04-24T02:30:47;36.60;;;23.05;;
59512;SDS011;45330;51.634;5.562;2023-04-24T02:33:13;35.55;;;22.90;;
59512;SDS011;45330;51.634;5.562;2023-04-24T02:35:38;36.83;;;23.77;;
59512;SDS011;45330;51.634;5.562;2023-04-24T02:38:03;35.22;;;22.70;;
59512;SDS011;45330;51.634;5.562;2023-04-24T02:40:29;35.63;;;23.00;;
59512;SDS011;45330;51.634;5.562;2023-04-24T02:42:55;34.15;;;22.55;;
59512;SDS011;45330;51.634;5.562;2023-04-24T02:45:20;33.72;;;23.20;;
59512;SDS011;45330;51.634;5.562;2023-04-24T02:47:46;33.35;;;22.30;;
59512;SDS011;45330;51.634;5.562;2023-04-24T02:50:11;36.35;;;22.30;;
59512;SDS011;45330;51.634;5.562;2023-04-24T02:52:36;32.88;;;20.52;;
59512;SDS011;45330;51.634;5.562;2023-04-24T02:55:02;34.85;;;21.63;;
59512;SDS011;45330;51.634;5.562;2023-04-24T02:57:28;34.55;;;21.05;;
59512;SDS011;45330;51.634;5.562;2023-04-24T02:59:53;32.35;;;22.42;;
59512;SDS011;45330;51.634;5.562;2023-04-24T03:02:18;32.42;;;21.73;;
59512;SDS011;45330;51.634;5.562;2023-04-24T03:04:45;32.42;;;20.33;;
59512;SDS011;45330;51.634;5.562;2023-04-24T03:07:12;33.17;;;21.48;;
59512;SDS011;45330;51.634;5.562;2023-04-24T03:09:38;34.53;;;21.17;;
59512;SDS011;45330;51.634;5.562;2023-04-24T03:12:04;32.35;;;20.83;;
59512;SDS011;45330;51.634;5.562;2023-04-24T03:14:29;33.67;;;21.27;;
59512;SDS011;45330;51.634;5.562;2023-04-24T03:16:56;31.88;;;19.10;;
59512;SDS011;45330;51.634;5.562;2023-04-24T03:19:21;34.58;;;21.45;;
59512;SDS011;45330;51.634;5.562;2023-04-24T03:21:47;31.52;;;21.10;;
59512;SDS011;45330;51.634;5.562;2023-04-24T03:24:12;30.70;;;20.65;;
59512;SDS011;45330;51.634;5.562;2023-04-24T03:26:38;32.67;;;21.15;;
59512;SDS011;45330;51.634;5.562;2023-04-24T03:29:03;32.20;;;21.08;;
59512;SDS011;45330;51.634;5.562;2023-04-24T03:31:28;31.95;;;20.30;;
59512;SDS011;45330;51.634;5.562;2023-04-24T03:33:54;30.95;;;20.52;;
59512;SDS011;45330;51.634;5.562;2023-04-24T03:36:19;36.80;;;20.30;;
59512;SDS011;45330;51.634;5.562;2023-04-24T03:38:45;31.60;;;20.27;;
59512;SDS011;45330;51.634;5.562;2023-04-24T03:41:10;31.55;;;20.35;;
59512;SDS011;45330;51.634;5.562;2023-04-24T03:43:36;30.92;;;19.10;;
59512;SDS011;45330;51.634;5.562;2023-04-24T03:46:02;32.30;;;20.10;;
59512;SDS011;45330;51.634;5.562;2023-04-24T03:48:28;31.58;;;19.90;;
59512;SDS011;45330;51.634;5.562;2023-04-24T03:50:54;31.85;;;20.02;;
59512;SDS011;45330;51.634;5.562;2023-04-24T03:53:19;31.23;;;20.50;;
59512;SDS011;45330;51.634;5.562;2023-04-24T03:55:45;30.95;;;19.33;;
59512;SDS011;45330;51.634;5.562;2023-04-24T03:58:11;30.50;;;18.92;;
59512;SDS011;45330;51.634;5.562;2023-04-24T04:00:36;30.77;;;19.15;;
59512;SDS011;45330;51.634;5.562;2023-04-24T04:03:02;30.83;;;20.13;;
59512;SDS011;45330;51.634;5.562;2023-04-24T04:05:28;27.88;;;18.35;;
59512;SDS011;45330;51.634;5.562;2023-04-24T04:07:54;30.35;;;19.00;;
59512;SDS011;45330;51.634;5.562;2023-04-24T04:10:20;29.83;;;18.65;;
59512;SDS011;45330;51.634;5.562;2023-04-24T04:12:45;29.30;;;17.08;;
59512;SDS011;45330;51.634;5.562;2023-04-24T04:15:11;29.20;;;17.88;;
59512;SDS011;45330;51.634;5.562;2023-04-24T04:17:36;30.92;;;18.00;;
59512;SDS011;45330;51.634;5.562;2023-04-24T04:20:03;28.35;;;17.20;;
59512;SDS011;45330;51.634;5.562;2023-04-24T04:22:32;29.42;;;17.05;;
59512;SDS011;45330;51.634;5.562;2023-04-24T04:24:58;33.90;;;18.48;;
59512;SDS011;45330;51.634;5.562;2023-04-24T04:27:23;29.40;;;16.95;;
59512;SDS011;45330;51.634;5.562;2023-04-24T04:29:48;28.90;;;17.02;;
59512;SDS011;45330;51.634;5.562;2023-04-24T04:32:15;27.15;;;17.02;;
59512;SDS011;45330;51.634;5.562;2023-04-24T04:34:41;28.08;;;16.58;;
59512;SDS011;45330;51.634;5.562;2023-04-24T04:37:06;28.13;;;16.40;;
59512;SDS011;45330;51.634;5.562;2023-04-24T04:39:32;27.48;;;16.60;;
59512;SDS011;45330;51.634;5.562;2023-04-24T04:41:57;28.27;;;16.83;;
59512;SDS011;45330;51.634;5.562;2023-04-24T04:44:23;26.33;;;15.82;;
59512;SDS011;45330;51.634;5.562;2023-04-24T04:46:49;26.30;;;15.63;;
59512;SDS011;45330;51.634;5.562;2023-04-24T04:49:15;26.63;;;16.00;;
59512;SDS011;45330;51.634;5.562;2023-04-24T04:51:41;29.40;;;16.98;;
59512;SDS011;45330;51.634;5.562;2023-04-24T04:54:07;28.25;;;16.08;;
59512;SDS011;45330;51.634;5.562;2023-04-24T04:56:32;27.73;;;15.80;;
59512;SDS011;45330;51.634;5.562;2023-04-24T04:58:58;26.88;;;16.17;;
59512;SDS011;45330;51.634;5.562;2023-04-24T05:01:24;26.55;;;16.20;;
59512;SDS011;45330;51.634;5.562;2023-04-24T05:03:52;26.00;;;15.82;;
59512;SDS011;45330;51.634;5.562;2023-04-24T05:06:17;28.50;;;16.45;;
59512;SDS011;45330;51.634;5.562;2023-04-24T05:08:44;27.60;;;15.85;;
59512;SDS011;45330;51.634;5.562;2023-04-24T05:11:09;25.38;;;16.02;;
59512;SDS011;45330;51.634;5.562;2023-04-24T05:13:34;25.15;;;15.00;;
59512;SDS011;45330;51.634;5.562;2023-04-24T05:16:00;26.10;;;14.73;;
59512;SDS011;45330;51.634;5.562;2023-04-24T05:18:25;23.33;;;13.20;;
59512;SDS011;45330;51.634;5.562;2023-04-24T05:20:51;22.40;;;12.50;;
59512;SDS011;45330;51.634;5.562;2023-04-24T05:23:16;23.90;;;12.32;;
59512;SDS011;45330;51.634;5.562;2023-04-24T05:25:41;23.20;;;12.32;;
59512;SDS011;45330;51.634;5.562;2023-04-24T05:28:07;24.23;;;12.85;;
59512;SDS011;45330;51.634;5.562;2023-04-24T05:30:33;22.17;;;12.13;;
59512;SDS011;45330;51.634;5.562;2023-04-24T05:32:58;24.33;;;13.45;;
59512;SDS011;45330;51.634;5.562;2023-04-24T05:35:24;22.33;;;11.98;;
59512;SDS011;45330;51.634;5.562;2023-04-24T05:37:50;23.55;;;12.40;;
59512;SDS011;45330;51.634;5.562;2023-04-24T05:40:15;22.00;;;11.70;;
59512;SDS011;45330;51.634;5.562;2023-04-24T05:42:40;22.63;;;11.35;;
59512;SDS011;45330;51.634;5.562;2023-04-24T05:45:06;21.45;;;10.40;;
59512;SDS011;45330;51.634;5.562;2023-04-24T05:47:32;20.75;;;9.60;;
59512;SDS011;45330;51.634;5.562;2023-04-24T05:49:57;19.52;;;8.48;;
59512;SDS011;45330;51.634;5.562;2023-04-24T05:52:23;19.15;;;7.63;;
59512;SDS011;45330;51.634;5.562;2023-04-24T05:54:48;19.27;;;7.30;;
59512;SDS011;45330;51.634;5.562;2023-04-24T05:57:13;15.95;;;5.78;;
59512;SDS011;45330;51.634;5.562;2023-04-24T05:59:40;14.35;;;5.05;;
59512;SDS011;45330;51.634;5.562;2023-04-24T06:02:05;15.68;;;5.80;;
59512;SDS011;45330;51.634;5.562;2023-04-24T06:04:31;15.82;;;5.93;;
59512;SDS011;45330;51.634;5.562;2023-04-24T06:06:57;12.85;;;4.80;;
59512;SDS011;45330;51.634;5.562;2023-04-24T06:09:22;11.82;;;4.38;;
59512;SDS011;45330;51.634;5.562;2023-04-24T06:11:48;11.38;;;3.90;;
59512;SDS011;45330;51.634;5.562;2023-04-24T06:14:14;4.93;;;2.65;;
59512;SDS011;45330;51.634;5.562;2023-04-24T06:16:41;6.65;;;2.60;;
59512;SDS011;45330;51.634;5.562;2023-04-24T06:19:07;5.32;;;2.53;;
59512;SDS011;45330;51.634;5.562;2023-04-24T06:21:32;5.57;;;2.67;;
59512;SDS011;45330;51.634;5.562;2023-04-24T06:23:58;4.90;;;2.90;;
59512;SDS011;45330;51.634;5.562;2023-04-24T06:26:23;8.88;;;3.53;;
59512;SDS011;45330;51.634;5.562;2023-04-24T06:28:50;6.82;;;3.42;;
59512;SDS011;45330;51.634;5.562;2023-04-24T06:31:16;6.20;;;3.22;;
59512;SDS011;45330;51.634;5.562;2023-04-24T06:33:42;8.50;;;3.42;;
59512;SDS011;45330;51.634;5.562;2023-04-24T06:36:07;8.70;;;3.55;;
59512;SDS011;45330;51.634;5.562;2023-04-24T06:38:33;9.65;;;3.85;;
59512;SDS011;45330;51.634;5.562;2023-04-24T06:40:59;14.25;;;5.25;;
59512;SDS011;45330;51.634;5.562;2023-04-24T06:43:24;10.82;;;4.10;;
59512;SDS011;45330;51.634;5.562;2023-04-24T06:45:50;10.00;;;4.47;;
59512;SDS011;45330;51.634;5.562;2023-04-24T06:48:15;10.25;;;4.43;;
59512;SDS011;45330;51.634;5.562;2023-04-24T06:50:41;11.48;;;4.70;;
59512;SDS011;45330;51.634;5.562;2023-04-24T06:53:06;15.35;;;6.60;;
59512;SDS011;45330;51.634;5.562;2023-04-24T06:55:31;15.43;;;6.50;;
59512;SDS011;45330;51.634;5.562;2023-04-24T06:57:57;18.77;;;7.35;;
59512;SDS011;45330;51.634;5.562;2023-04-24T07:00:22;19.63;;;8.60;;
59512;SDS011;45330;51.634;5.562;2023-04-24T07:02:49;18.60;;;8.30;;
59512;SDS011;45330;51.634;5.562;2023-04-24T07:05:14;19.08;;;8.93;;
59512;SDS011;45330;51.634;5.562;2023-04-24T07:07:40;16.98;;;7.53;;
59512;SDS011;45330;51.634;5.562;2023-04-24T07:10:05;17.40;;;7.60;;
59512;SDS011;45330;51.634;5.562;2023-04-24T07:12:31;16.05;;;6.72;;
59512;SDS011;45330;51.634;5.562;2023-04-24T07:14:57;17.80;;;6.78;;
59512;SDS011;45330;51.634;5.562;2023-04-24T07:17:22;19.63;;;8.07;;
59512;SDS011;45330;51.634;5.562;2023-04-24T07:19:48;20.27;;;9.52;;
59512;SDS011;45330;51.634;5.562;2023-04-24T07:22:13;22.30;;;10.23;;
59512;SDS011;45330;51.634;5.562;2023-04-24T07:24:42;24.17;;;11.43;;
59512;SDS011;45330;51.634;5.562;2023-04-24T07:27:08;25.10;;;12.10;;
59512;SDS011;45330;51.634;5.562;2023-04-24T07:29:34;24.75;;;13.00;;
59512;SDS011;45330;51.634;5.562;2023-04-24T07:32:00;26.95;;;13.15;;
59512;SDS011;45330;51.634;5.562;2023-04-24T07:34:25;26.25;;;13.68;;
59512;SDS011;45330;51.634;5.562;2023-04-24T07:36:51;26.30;;;12.43;;
59512;SDS011;45330;51.634;5.562;2023-04-24T07:39:16;26.10;;;12.77;;
59512;SDS011;45330;51.634;5.562;2023-04-24T07:41:42;28.55;;;13.07;;
59512;SDS011;45330;51.634;5.562;2023-04-24T07:44:07;28.55;;;12.80;;
59512;SDS011;45330;51.634;5.562;2023-04-24T07:46:33;22.95;;;10.48;;
59512;SDS011;45330;51.634;5.562;2023-04-24T07:48:58;27.13;;;11.98;;
59512;SDS011;45330;51.634;5.562;2023-04-24T07:51:26;27.23;;;11.30;;
59512;SDS011;45330;51.634;5.562;2023-04-24T07:53:52;27.48;;;12.00;;
59512;SDS011;45330;51.634;5.562;2023-04-24T07:56:19;27.88;;;11.10;;
59512;SDS011;45330;51.634;5.562;2023-04-24T07:58:45;26.38;;;11.13;;
59512;SDS011;45330;51.634;5.562;2023-04-24T08:01:11;26.60;;;11.85;;
59512;SDS011;45330;51.634;5.562;2023-04-24T08:03:36;26.95;;;11.75;;
59512;SDS011;45330;51.634;5.562;2023-04-24T08:06:02;27.08;;;11.00;;
59512;SDS011;45330;51.634;5.562;2023-04-24T08:08:27;29.83;;;11.40;;
59512;SDS011;45330;51.634;5.562;2023-04-24T08:10:53;26.70;;;10.27;;
59512;SDS011;45330;51.634;5.562;2023-04-24T08:13:19;27.77;;;9.90;;
59512;SDS011;45330;51.634;5.562;2023-04-24T08:15:45;24.98;;;9.88;;
59512;SDS011;45330;51.634;5.562;2023-04-24T08:18:10;25.52;;;9.40;;
59512;SDS011;45330;51.634;5.562;2023-04-24T08:20:37;26.40;;;9.20;;
59512;SDS011;45330;51.634;5.562;2023-04-24T08:23:02;26.40;;;9.73;;
59512;SDS011;45330;51.634;5.562;2023-04-24T08:25:28;27.77;;;9.30;;
59512;SDS011;45330;51.634;5.562;2023-04-24T08:27:53;26.95;;;8.93;;
59512;SDS011;45330;51.634;5.562;2023-04-24T08:30:19;27.60;;;8.80;;
59512;SDS011;45330;51.634;5.562;2023-04-24T08:32:45;23.73;;;8.50;;
59512;SDS011;45330;51.634;5.562;2023-04-24T08:35:11;28.10;;;8.90;;
59512;SDS011;45330;51.634;5.562;2023-04-24T08:37:36;24.73;;;8.00;;
59512;SDS011;45330;51.634;5.562;2023-04-24T08:40:06;22.48;;;7.20;;
59512;SDS011;45330;51.634;5.562;2023-04-24T08:42:37;21.83;;;6.95;;
59512;SDS011;45330;51.634;5.562;2023-04-24T08:45:04;22.05;;;6.60;;
59512;SDS011;45330;51.634;5.562;2023-04-24T08:47:31;22.25;;;6.18;;
59512;SDS011;45330;51.634;5.562;2023-04-24T08:49:58;28.30;;;7.15;;
59512;SDS011;45330;51.634;5.562;2023-04-24T08:52:25;21.27;;;5.90;;
59512;SDS011;45330;51.634;5.562;2023-04-24T08:54:50;25.00;;;6.78;;
59512;SDS011;45330;51.634;5.562;2023-04-24T08:57:18;21.75;;;6.13;;
59512;SDS011;45330;51.634;5.562;2023-04-24T08:59:44;19.77;;;5.90;;
59512;SDS011;45330;51.634;5.562;2023-04-24T09:02:10;20.75;;;5.57;;
59512;SDS011;45330;51.634;5.562;2023-04-24T09:04:36;21.70;;;5.20;;
59512;SDS011;45330;51.634;5.562;2023-04-24T09:07:02;22.58;;;5.30;;
59512;SDS011;45330;51.634;5.562;2023-04-24T09:09:30;23.20;;;5.13;;
59512;SDS011;45330;51.634;5.562;2023-04-24T09:11:56;23.65;;;5.45;;
59512;SDS011;45330;51.634;5.562;2023-04-24T09:14:22;20.95;;;5.78;;
59512;SDS011;45330;51.634;5.562;2023-04-24T09:16:48;20.67;;;5.53;;
59512;SDS011;45330;51.634;5.562;2023-04-24T09:19:14;22.60;;;5.32;;
59512;SDS011;45330;51.634;5.562;2023-04-24T09:21:40;21.33;;;4.95;;
59512;SDS011;45330;51.634;5.562;2023-04-24T09:24:07;17.95;;;4.40;;
59512;SDS011;45330;51.634;5.562;2023-04-24T09:26:42;21.48;;;5.32;;
59512;SDS011;45330;51.634;5.562;2023-04-24T09:29:13;14.85;;;4.20;;
59512;SDS011;45330;51.634;5.562;2023-04-24T09:31:40;21.80;;;4.97;;
59512;SDS011;45330;51.634;5.562;2023-04-24T09:34:06;16.75;;;3.80;;
59512;SDS011;45330;51.634;5.562;2023-04-24T09:36:36;19.00;;;3.95;;
59512;SDS011;45330;51.634;5.562;2023-04-24T09:39:07;14.27;;;3.60;;
59512;SDS011;45330;51.634;5.562;2023-04-24T09:41:35;13.85;;;3.38;;
59512;SDS011;45330;51.634;5.562;2023-04-24T09:46:55;14.98;;;3.40;;
59512;SDS011;45330;51.634;5.562;2023-04-24T09:49:22;14.57;;;3.65;;
59512;SDS011;45330;51.634;5.562;2023-04-24T09:51:50;14.98;;;3.83;;
59512;SDS011;45330;51.634;5.562;2023-04-24T09:56:45;18.90;;;3.75;;
59512;SDS011;45330;51.634;5.562;2023-04-24T09:59:13;15.57;;;3.57;;
59512;SDS011;45330;51.634;5.562;2023-04-24T10:01:38;15.52;;;3.50;;
59512;SDS011;45330;51.634;5.562;2023-04-24T10:04:14;13.38;;;3.70;;
59512;SDS011;45330;51.634;5.562;2023-04-24T10:06:50;15.65;;;3.50;;
59512;SDS011;45330;51.634;5.562;2023-04-24T10:09:17;15.88;;;3.80;;
59512;SDS011;45330;51.634;5.562;2023-04-24T10:11:44;16.83;;;3.38;;
59512;SDS011;45330;51.634;5.562;2023-04-24T10:14:16;18.60;;;3.78;;
59512;SDS011;45330;51.634;5.562;2023-04-24T10:16:43;13.70;;;3.75;;
59512;SDS011;45330;51.634;5.562;2023-04-24T10:19:11;17.40;;;4.00;;
59512;SDS011;45330;51.634;5.562;2023-04-24T10:21:38;16.80;;;4.90;;
59512;SDS011;45330;51.634;5.562;2023-04-24T10:24:10;14.23;;;3.50;;
59512;SDS011;45330;51.634;5.562;2023-04-24T10:26:36;13.77;;;3.60;;
59512;SDS011;45330;51.634;5.562;2023-04-24T10:29:03;11.52;;;3.08;;
59512;SDS011;45330;51.634;5.562;2023-04-24T10:31:31;14.52;;;2.83;;
59512;SDS011;45330;51.634;5.562;2023-04-24T10:33:58;13.90;;;3.08;;
59512;SDS011;45330;51.634;5.562;2023-04-24T10:36:25;10.73;;;3.28;;
59512;SDS011;45330;51.634;5.562;2023-04-24T10:38:53;13.27;;;2.92;;
59512;SDS011;45330;51.634;5.562;2023-04-24T10:41:21;15.63;;;3.25;;
59512;SDS011;45330;51.634;5.562;2023-04-24T10:44:06;14.25;;;3.20;;
59512;SDS011;45330;51.634;5.562;2023-04-24T10:46:44;9.43;;;2.67;;
59512;SDS011;45330;51.634;5.562;2023-04-24T10:49:11;11.77;;;2.50;;
59512;SDS011;45330;51.634;5.562;2023-04-24T10:51:46;6.30;;;2.55;;
59512;SDS011;45330;51.634;5.562;2023-04-24T10:54:40;16.02;;;2.63;;
59512;SDS011;45330;51.634;5.562;2023-04-24T10:59:43;9.15;;;2.28;;
59512;SDS011;45330;51.634;5.562;2023-04-24T11:02:09;7.72;;;1.70;;
59512;SDS011;45330;51.634;5.562;2023-04-24T11:04:35;6.38;;;2.00;;
59512;SDS011;45330;51.634;5.562;2023-04-24T11:07:02;8.25;;;1.70;;
59512;SDS011;45330;51.634;5.562;2023-04-24T11:09:30;8.02;;;1.88;;
59512;SDS011;45330;51.634;5.562;2023-04-24T11:12:03;4.18;;;1.83;;
59512;SDS011;45330;51.634;5.562;2023-04-24T11:17:31;5.25;;;1.65;;
59512;SDS011;45330;51.634;5.562;2023-04-24T11:20:05;6.40;;;2.10;;
59512;SDS011;45330;51.634;5.562;2023-04-24T11:22:35;7.30;;;2.20;;
59512;SDS011;45330;51.634;5.562;2023-04-24T11:25:04;8.48;;;2.50;;
59512;SDS011;45330;51.634;5.562;2023-04-24T11:27:32;8.80;;;2.80;;
59512;SDS011;45330;51.634;5.562;2023-04-24T11:30:04;5.65;;;2.50;;
59512;SDS011;45330;51.634;5.562;2023-04-24T11:32:33;6.43;;;2.10;;
59512;SDS011;45330;51.634;5.562;2023-04-24T11:40:10;3.38;;;1.50;;
59512;SDS011;45330;51.634;5.562;2023-04-24T11:42:37;4.20;;;1.70;;
59512;SDS011;45330;51.634;5.562;2023-04-24T11:45:10;4.30;;;1.63;;
59512;SDS011;45330;51.634;5.562;2023-04-24T11:47:38;6.35;;;1.83;;
59512;SDS011;45330;51.634;5.562;2023-04-24T11:50:05;4.95;;;1.80;;
59512;SDS011;45330;51.634;5.562;2023-04-24T11:52:33;7.38;;;2.00;;
59512;SDS011;45330;51.634;5.562;2023-04-24T11:55:03;7.10;;;2.00;;
59512;SDS011;45330;51.634;5.562;2023-04-24T11:57:28;14.38;;;2.40;;
59512;SDS011;45330;51.634;5.562;2023-04-24T11:59:59;9.88;;;1.80;;
59512;SDS011;45330;51.634;5.562;2023-04-24T12:02:25;6.35;;;1.90;;
59512;SDS011;45330;51.634;5.562;2023-04-24T12:04:54;6.88;;;1.80;;
59512;SDS011;45330;51.634;5.562;2023-04-24T12:07:20;10.90;;;2.17;;
59512;SDS011;45330;51.634;5.562;2023-04-24T12:09:48;7.28;;;1.80;;
59512;SDS011;45330;51.634;5.562;2023-04-24T12:12:20;11.05;;;2.10;;
59512;SDS011;45330;51.634;5.562;2023-04-24T12:15:27;7.75;;;1.60;;
59512;SDS011;45330;51.634;5.562;2023-04-24T12:17:34;9.50;;;1.80;;
59512;SDS011;45330;51.634;5.562;2023-04-24T12:20:05;4.80;;;1.95;;
59512;SDS011;45330;51.634;5.562;2023-04-24T12:22:48;11.82;;;2.28;;
59512;SDS011;45330;51.634;5.562;2023-04-24T12:25:23;7.20;;;1.80;;
59512;SDS011;45330;51.634;5.562;2023-04-24T12:27:53;8.45;;;1.90;;
59512;SDS011;45330;51.634;5.562;2023-04-24T12:30:39;8.75;;;1.85;;
59512;SDS011;45330;51.634;5.562;2023-04-24T12:33:09;8.82;;;2.00;;
59512;SDS011;45330;51.634;5.562;2023-04-24T12:35:35;8.13;;;1.90;;
59512;SDS011;45330;51.634;5.562;2023-04-24T12:38:07;7.43;;;2.05;;
59512;SDS011;45330;51.634;5.562;2023-04-24T12:40:33;13.00;;;2.50;;
59512;SDS011;45330;51.634;5.562;2023-04-24T12:42:59;11.63;;;2.42;;
59512;SDS011;45330;51.634;5.562;2023-04-24T12:45:24;7.82;;;2.13;;
59512;SDS011;45330;51.634;5.562;2023-04-24T12:47:50;10.05;;;2.25;;
59512;SDS011;45330;51.634;5.562;2023-04-24T12:50:16;6.75;;;2.20;;
59512;SDS011;45330;51.634;5.562;2023-04-24T12:52:42;12.50;;;2.63;;
59512;SDS011;45330;51.634;5.562;2023-04-24T12:55:08;9.38;;;2.38;;
59512;SDS011;45330;51.634;5.562;2023-04-24T12:57:34;7.93;;;2.33;;
59512;SDS011;45330;51.634;5.562;2023-04-24T13:00:02;8.90;;;2.20;;
59512;SDS011;45330;51.634;5.562;2023-04-24T13:02:29;6.32;;;2.17;;
59512;SDS011;45330;51.634;5.562;2023-04-24T13:04:59;6.10;;;1.88;;
59512;SDS011;45330;51.634;5.562;2023-04-24T13:07:25;7.45;;;2.53;;
59512;SDS011;45330;51.634;5.562;2023-04-24T13:09:51;6.35;;;2.20;;
59512;SDS011;45330;51.634;5.562;2023-04-24T13:12:17;8.55;;;2.20;;
59512;SDS011;45330;51.634;5.562;2023-04-24T13:14:43;8.15;;;2.40;;
59512;SDS011;45330;51.634;5.562;2023-04-24T13:17:08;8.27;;;2.25;;
59512;SDS011;45330;51.634;5.562;2023-04-24T13:19:37;7.20;;;1.88;;
59512;SDS011;45330;51.634;5.562;2023-04-24T13:22:04;5.47;;;2.03;;
59512;SDS011;45330;51.634;5.562;2023-04-24T13:24:30;8.52;;;1.98;;
59512;SDS011;45330;51.634;5.562;2023-04-24T13:26:57;5.32;;;1.83;;
59512;SDS011;45330;51.634;5.562;2023-04-24T13:29:23;6.88;;;2.67;;
59512;SDS011;45330;51.634;5.562;2023-04-24T13:31:51;9.05;;;2.53;;
59512;SDS011;45330;51.634;5.562;2023-04-24T13:34:21;7.00;;;2.53;;
59512;SDS011;45330;51.634;5.562;2023-04-24T13:36:49;6.25;;;2.45;;
59512;SDS011;45330;51.634;5.562;2023-04-24T13:39:16;9.00;;;2.92;;
59512;SDS011;45330;51.634;5.562;2023-04-24T13:41:41;8.35;;;2.03;;
59512;SDS011;45330;51.634;5.562;2023-04-24T13:44:07;6.97;;;2.22;;
59512;SDS011;45330;51.634;5.562;2023-04-24T13:46:33;10.27;;;2.53;;
59512;SDS011;45330;51.634;5.562;2023-04-24T13:48:58;8.82;;;2.47;;
59512;SDS011;45330;51.634;5.562;2023-04-24T13:51:27;6.15;;;2.42;;
59512;SDS011;45330;51.634;5.562;2023-04-24T13:53:53;6.05;;;2.05;;
59512;SDS011;45330;51.634;5.562;2023-04-24T13:56:19;6.70;;;2.30;;
59512;SDS011;45330;51.634;5.562;2023-04-24T13:58:45;5.63;;;1.90;;
59512;SDS011;45330;51.634;5.562;2023-04-24T14:01:11;6.80;;;1.80;;
59512;SDS011;45330;51.634;5.562;2023-04-24T14:03:37;8.82;;;1.85;;
59512;SDS011;45330;51.634;5.562;2023-04-24T14:06:02;11.13;;;2.22;;
59512;SDS011;45330;51.634;5.562;2023-04-24T14:08:28;4.63;;;2.10;;
59512;SDS011;45330;51.634;5.562;2023-04-24T14:10:53;9.02;;;2.00;;
59512;SDS011;45330;51.634;5.562;2023-04-24T14:13:18;5.68;;;1.73;;
59512;SDS011;45330;51.634;5.562;2023-04-24T14:15:45;4.22;;;1.58;;
59512;SDS011;45330;51.634;5.562;2023-04-24T14:18:10;5.30;;;1.58;;
59512;SDS011;45330;51.634;5.562;2023-04-24T14:20:36;3.90;;;1.83;;
59512;SDS011;45330;51.634;5.562;2023-04-24T14:23:01;4.65;;;1.60;;
59512;SDS011;45330;51.634;5.562;2023-04-24T14:25:26;6.28;;;2.08;;
59512;SDS011;45330;51.634;5.562;2023-04-24T14:27:52;10.35;;;2.30;;
59512;SDS011;45330;51.634;5.562;2023-04-24T14:30:18;10.30;;;2.40;;
59512;SDS011;45330;51.634;5.562;2023-04-24T14:32:44;7.93;;;2.30;;
59512;SDS011;45330;51.634;5.562;2023-04-24T14:35:09;7.70;;;2.60;;
59512;SDS011;45330;51.634;5.562;2023-04-24T14:37:34;10.65;;;2.45;;
59512;SDS011;45330;51.634;5.562;2023-04-24T14:40:01;8.73;;;2.47;;
59512;SDS011;45330;51.634;5.562;2023-04-24T14:42:30;11.07;;;3.13;;
59512;SDS011;45330;51.634;5.562;2023-04-24T14:44:55;9.10;;;2.80;;
59512;SDS011;45330;51.634;5.562;2023-04-24T14:47:20;8.65;;;2.40;;